createdAt,value
2023-12-23T00:00:22.746Z,15.70
2023-12-23T00:02:54.065Z,15.83
2023-12-23T00:05:24.806Z,15.10
2023-12-23T00:07:55.515Z,14.70
2023-12-23T00:10:26.050Z,14.70
2023-12-23T00:12:56.604Z,14.40
2023-12-23T00:15:27.178Z,13.93
2023-12-23T00:17:58.084Z,14.45
2023-12-23T00:20:28.763Z,13.88
2023-12-23T00:22:59.743Z,13.93
2023-12-23T00:25:30.253Z,13.70
2023-12-23T00:28:00.841Z,14.10
2023-12-23T00:30:31.690Z,15.70
2023-12-23T00:33:03.352Z,14.48
2023-12-23T00:35:33.896Z,13.87
2023-12-23T00:38:04.487Z,15.27
2023-12-23T00:40:35.105Z,14.80
2023-12-23T00:43:06.125Z,14.50
2023-12-23T00:45:37.295Z,14.40
2023-12-23T00:48:08.369Z,13.40
2023-12-23T00:50:39.090Z,14.18
2023-12-23T00:53:10.241Z,14.48
2023-12-23T00:55:42.078Z,13.20
2023-12-23T00:58:12.645Z,14.35
2023-12-23T01:00:43.172Z,13.50
2023-12-23T01:03:13.810Z,13.63
2023-12-23T01:05:44.324Z,14.13
2023-12-23T01:08:14.906Z,14.00
2023-12-23T01:10:45.382Z,13.20
2023-12-23T01:13:15.987Z,14.07
2023-12-23T01:15:46.597Z,13.20
2023-12-23T01:18:17.852Z,13.77
2023-12-23T01:20:48.441Z,13.73
2023-12-23T01:23:19.328Z,13.27
2023-12-23T01:25:49.956Z,13.87
2023-12-23T01:28:20.575Z,13.40
2023-12-23T01:30:51.257Z,12.95
2023-12-23T01:33:22.039Z,13.23
2023-12-23T01:35:52.653Z,12.47
2023-12-23T01:38:23.323Z,13.33
2023-12-23T01:40:53.907Z,12.67
2023-12-23T01:43:24.481Z,12.63
2023-12-23T01:46:02.516Z,11.93
2023-12-23T01:48:38.454Z,12.55
2023-12-23T01:51:09.135Z,13.93
2023-12-23T01:53:40.102Z,13.63
2023-12-23T01:56:11.766Z,13.38
2023-12-23T01:58:42.673Z,12.93
2023-12-23T02:01:13.415Z,13.10
2023-12-23T02:03:44.826Z,12.95
2023-12-23T02:08:45.324Z,16.05
2023-12-23T02:11:23.113Z,17.58
2023-12-23T02:14:06.815Z,16.63
2023-12-23T02:16:39.473Z,16.65
2023-12-23T02:19:10.361Z,16.55
2023-12-23T02:21:40.995Z,15.50
2023-12-23T02:24:11.775Z,15.17
2023-12-23T02:26:45.233Z,14.75
2023-12-23T02:29:18.165Z,15.27
2023-12-23T02:31:50.054Z,15.95
2023-12-23T02:34:21.660Z,14.30
2023-12-23T02:36:52.569Z,14.18
2023-12-23T02:39:23.106Z,14.70
2023-12-23T02:41:54.668Z,13.95
2023-12-23T02:44:25.251Z,14.57
2023-12-23T02:46:55.818Z,13.77
2023-12-23T02:49:27.073Z,13.35
2023-12-23T02:51:59.150Z,14.43
2023-12-23T02:54:29.614Z,13.25
2023-12-23T02:57:00.185Z,14.20
2023-12-23T02:59:30.719Z,13.32
2023-12-23T03:02:01.336Z,13.93
2023-12-23T03:04:32.677Z,13.23
2023-12-23T03:07:04.255Z,13.32
2023-12-23T03:09:34.805Z,13.40
2023-12-23T03:12:56.704Z,11.90
2023-12-23T03:15:27.232Z,12.05
2023-12-23T03:17:59.007Z,12.63
2023-12-23T03:20:30.218Z,12.63
2023-12-23T03:23:00.865Z,13.55
2023-12-23T03:25:32.669Z,12.97
2023-12-23T03:28:03.240Z,12.73
2023-12-23T03:30:33.755Z,11.23
2023-12-23T03:33:04.557Z,13.27
2023-12-23T03:35:35.132Z,12.93
2023-12-23T03:38:05.776Z,11.97
2023-12-23T03:40:36.368Z,12.55
2023-12-23T03:43:07.577Z,11.85
2023-12-23T03:45:38.213Z,12.50
2023-12-23T03:48:10.295Z,11.55
2023-12-23T03:50:40.672Z,12.65
2023-12-23T03:53:12.242Z,12.75
2023-12-23T03:55:43.007Z,11.88
2023-12-23T03:58:13.603Z,12.73
2023-12-23T04:00:44.614Z,12.35
2023-12-23T04:03:15.307Z,11.43
2023-12-23T04:05:46.074Z,11.27
2023-12-23T04:08:17.039Z,11.10
2023-12-23T04:13:19.830Z,11.73
2023-12-23T04:15:50.632Z,12.27
2023-12-23T04:18:21.348Z,11.47
2023-12-23T04:23:22.966Z,11.23
2023-12-23T04:25:54.262Z,11.87
2023-12-23T04:28:28.128Z,12.32
2023-12-23T04:31:00.393Z,11.63
2023-12-23T04:33:31.020Z,11.38
2023-12-23T04:36:01.951Z,11.90
2023-12-23T04:38:32.797Z,12.55
2023-12-23T04:41:04.232Z,11.63
2023-12-23T04:43:37.324Z,11.88
2023-12-23T04:46:08.277Z,11.63
2023-12-23T04:48:39.188Z,11.60
2023-12-23T04:51:10.280Z,12.05
2023-12-23T04:53:41.529Z,11.30
2023-12-23T04:58:42.546Z,10.57
2023-12-23T05:01:13.217Z,11.02
2023-12-23T05:03:45.219Z,10.60
2023-12-23T05:06:16.108Z,10.80
2023-12-23T05:08:47.050Z,10.75
2023-12-23T05:11:18.015Z,10.27
2023-12-23T05:13:48.612Z,10.43
2023-12-23T05:16:19.229Z,10.43
2023-12-23T05:18:50.473Z,10.93
2023-12-23T05:21:21.104Z,10.48
2023-12-23T05:23:52.057Z,11.10
2023-12-23T05:26:25.984Z,10.82
2023-12-23T05:28:56.864Z,10.85
2023-12-23T05:31:27.608Z,10.60
2023-12-23T05:33:59.718Z,10.13
2023-12-23T05:36:30.429Z,10.60
2023-12-23T05:39:00.932Z,9.93
2023-12-23T05:41:31.598Z,10.53
2023-12-23T05:44:03.276Z,10.30
2023-12-23T05:46:35.079Z,10.13
2023-12-23T05:49:05.661Z,10.48
2023-12-23T05:51:36.383Z,10.60
2023-12-23T05:54:07.007Z,11.18
2023-12-23T05:56:37.678Z,10.73
2023-12-23T05:59:08.291Z,10.77
2023-12-23T06:01:38.752Z,11.27
2023-12-23T06:04:09.267Z,10.67
2023-12-23T06:06:39.837Z,11.13
2023-12-23T06:09:10.429Z,10.60
2023-12-23T06:11:41.009Z,10.82
2023-12-23T06:14:11.884Z,10.50
2023-12-23T06:16:46.431Z,11.02
2023-12-23T06:19:17.630Z,10.80
2023-12-23T06:21:50.339Z,10.85
2023-12-23T06:24:20.890Z,9.98
2023-12-23T06:26:51.583Z,11.70
2023-12-23T06:29:22.120Z,12.07
2023-12-23T06:31:52.722Z,11.90
2023-12-23T06:34:52.552Z,12.50
2023-12-23T06:37:23.121Z,12.88
2023-12-23T06:39:53.833Z,12.07
2023-12-23T06:42:24.317Z,13.20
2023-12-23T06:44:54.896Z,11.98
2023-12-23T06:47:25.569Z,12.53
2023-12-23T06:49:56.243Z,12.93
2023-12-23T06:52:26.789Z,12.47
2023-12-23T06:54:57.361Z,12.85
2023-12-23T06:57:43.318Z,13.03
2023-12-23T07:00:14.379Z,13.07
2023-12-23T07:02:45.098Z,14.38
2023-12-23T07:05:16.756Z,14.98
2023-12-23T07:07:47.636Z,14.05
2023-12-23T07:10:19.580Z,14.75
2023-12-23T07:12:50.313Z,15.38
2023-12-23T07:15:21.281Z,15.88
2023-12-23T07:17:51.905Z,16.93
2023-12-23T07:20:23.166Z,17.88
2023-12-23T07:22:54.048Z,18.00
2023-12-23T07:25:24.901Z,18.13
2023-12-23T07:27:55.415Z,19.30
2023-12-23T07:30:25.768Z,19.90
2023-12-23T07:32:56.768Z,18.92
2023-12-23T07:35:27.880Z,19.00
2023-12-23T07:37:58.418Z,18.03
2023-12-23T07:40:31.061Z,18.30
2023-12-23T07:43:03.160Z,18.67
2023-12-23T07:45:35.358Z,18.33
2023-12-23T07:48:06.336Z,17.55
2023-12-23T07:50:37.050Z,18.75
2023-12-23T07:53:07.924Z,18.00
2023-12-23T07:55:38.800Z,18.37
2023-12-23T07:58:09.334Z,17.15
2023-12-23T08:00:39.886Z,17.90
2023-12-23T08:03:10.641Z,17.67
2023-12-23T08:05:41.293Z,17.40
2023-12-23T08:08:14.040Z,16.65
2023-12-23T08:10:44.564Z,16.92
2023-12-23T08:13:15.311Z,16.20
2023-12-23T08:15:45.753Z,16.23
2023-12-23T08:18:16.357Z,17.40
2023-12-23T08:20:47.884Z,17.70
2023-12-23T08:23:18.658Z,17.30
2023-12-23T08:25:50.089Z,16.93
2023-12-23T08:28:20.780Z,16.27
2023-12-23T08:30:51.326Z,16.58
2023-12-23T08:33:21.942Z,16.27
2023-12-23T08:35:53.248Z,16.17
2023-12-23T08:40:53.794Z,15.63
2023-12-23T08:43:24.333Z,15.37
2023-12-23T08:45:54.839Z,15.27
2023-12-23T08:48:25.443Z,15.25
2023-12-23T08:50:56.269Z,14.17
2023-12-23T08:53:26.838Z,13.90
2023-12-23T08:55:57.795Z,16.10
2023-12-23T08:58:29.433Z,15.05
2023-12-23T09:03:31.495Z,14.48
2023-12-23T09:06:02.803Z,14.57
2023-12-23T09:08:33.438Z,14.55
2023-12-23T09:11:07.609Z,15.40
2023-12-23T09:13:38.189Z,14.65
2023-12-23T09:16:08.880Z,14.17
2023-12-23T09:18:39.475Z,15.37
2023-12-23T09:21:10.176Z,15.80
2023-12-23T09:23:41.678Z,15.07
2023-12-23T09:28:42.469Z,15.60
2023-12-23T09:31:13.097Z,16.75
2023-12-23T09:33:43.712Z,18.20
2023-12-23T09:36:14.778Z,18.17
2023-12-23T09:38:46.278Z,19.00
2023-12-23T09:41:18.151Z,17.50
2023-12-23T09:43:49.356Z,17.33
2023-12-23T09:46:23.458Z,17.27
2023-12-23T09:48:54.545Z,16.92
2023-12-23T09:51:29.632Z,16.63
2023-12-23T09:54:05.385Z,16.75
2023-12-23T09:56:37.766Z,15.27
2023-12-23T09:59:08.376Z,15.85
2023-12-23T10:01:38.750Z,15.60
2023-12-23T10:04:09.239Z,14.83
2023-12-23T10:06:40.042Z,14.45
2023-12-23T10:09:13.928Z,14.80
2023-12-23T10:11:44.640Z,13.98
2023-12-23T10:14:16.504Z,14.60
2023-12-23T10:16:48.607Z,14.77
2023-12-23T10:19:19.903Z,15.52
2023-12-23T10:21:52.227Z,14.20
2023-12-23T10:24:23.141Z,14.65
2023-12-23T10:26:53.633Z,13.40
2023-12-23T10:29:28.830Z,13.70
2023-12-23T10:32:02.609Z,13.40
2023-12-23T10:34:45.572Z,14.45
2023-12-23T10:37:16.370Z,13.95
2023-12-23T10:39:54.815Z,13.73
2023-12-23T10:42:27.637Z,13.30
2023-12-23T10:44:59.912Z,13.18
2023-12-23T10:47:32.287Z,13.02
2023-12-23T10:50:04.739Z,12.70
2023-12-23T10:52:36.154Z,13.48
2023-12-23T10:57:40.056Z,12.93
2023-12-23T11:00:13.284Z,13.48
2023-12-23T11:02:45.383Z,13.73
2023-12-23T11:05:16.763Z,13.00
2023-12-23T11:10:21.064Z,13.02
2023-12-23T11:12:52.076Z,12.98
2023-12-23T11:15:22.771Z,13.90
2023-12-23T11:17:54.388Z,14.30
2023-12-23T11:20:39.082Z,14.00
2023-12-23T11:23:34.425Z,15.32
2023-12-23T11:26:07.383Z,16.20
2023-12-23T11:28:41.901Z,16.67
2023-12-23T11:31:12.857Z,19.00
2023-12-23T11:33:43.623Z,17.77
2023-12-23T11:36:15.531Z,17.35
2023-12-23T11:38:51.553Z,18.15
2023-12-23T11:41:24.026Z,17.83
2023-12-23T11:43:56.224Z,18.75
2023-12-23T11:46:28.386Z,17.83
2023-12-23T11:49:00.514Z,17.50
2023-12-23T11:51:31.249Z,17.00
2023-12-23T11:54:01.965Z,18.05
2023-12-23T11:56:33.034Z,16.92
2023-12-23T11:59:05.421Z,16.17
2023-12-23T12:01:38.785Z,17.02
2023-12-23T12:04:09.570Z,17.20
2023-12-23T12:06:40.450Z,16.67
2023-12-23T12:09:12.871Z,16.53
2023-12-23T12:11:43.561Z,16.27
2023-12-23T12:14:15.523Z,17.57
2023-12-23T12:16:46.106Z,16.80
2023-12-23T12:19:17.098Z,18.80
2023-12-23T12:21:48.207Z,18.15
2023-12-23T12:24:18.825Z,17.90
2023-12-23T12:26:55.825Z,18.27
2023-12-23T12:29:27.463Z,18.77
2023-12-23T12:34:31.805Z,19.60
2023-12-23T12:37:02.303Z,20.45
2023-12-23T12:39:33.589Z,21.50
2023-12-23T12:42:04.293Z,21.70
2023-12-23T12:44:37.578Z,21.03
2023-12-23T12:47:08.459Z,22.40
2023-12-23T12:49:55.299Z,22.23
2023-12-23T12:52:31.137Z,21.70
2023-12-23T12:55:09.289Z,22.17
2023-12-23T12:57:39.826Z,22.92
2023-12-23T13:00:11.599Z,21.73
2023-12-23T13:02:42.152Z,24.65
2023-12-23T13:05:13.181Z,23.35
2023-12-23T13:07:43.650Z,25.13
2023-12-23T13:10:14.333Z,24.03
2023-12-23T13:12:45.613Z,23.15
2023-12-23T13:15:16.340Z,22.92
2023-12-23T13:17:47.101Z,24.70
2023-12-23T13:20:17.972Z,24.10
2023-12-23T13:22:49.227Z,27.10
2023-12-23T13:25:20.139Z,26.77
2023-12-23T13:27:50.934Z,27.10
2023-12-23T13:30:21.517Z,26.87
2023-12-23T13:32:52.279Z,25.70
2023-12-23T13:35:23.554Z,26.23
2023-12-23T13:37:54.273Z,24.88
2023-12-23T13:40:25.669Z,26.40
2023-12-23T13:45:26.961Z,26.00
2023-12-23T13:47:59.119Z,25.05
2023-12-23T13:50:30.336Z,25.45
2023-12-23T13:53:00.978Z,26.20
2023-12-23T13:55:32.796Z,24.83
2023-12-23T13:58:03.344Z,25.77
2023-12-23T14:00:35.335Z,25.80
2023-12-23T14:03:06.463Z,24.92
2023-12-23T14:05:38.939Z,23.20
2023-12-23T14:08:11.227Z,23.95
2023-12-23T14:10:41.728Z,23.87
2023-12-23T14:13:12.324Z,23.70
2023-12-23T14:15:43.141Z,24.52
2023-12-23T14:18:13.979Z,24.80
2023-12-23T14:20:44.596Z,23.70
2023-12-23T14:23:15.218Z,21.90
2023-12-23T14:26:48.992Z,22.65
2023-12-23T14:29:19.837Z,21.00
2023-12-23T14:31:52.213Z,21.07
2023-12-23T14:34:23.012Z,20.63
2023-12-23T14:36:53.589Z,20.00
2023-12-23T14:39:25.005Z,18.17
2023-12-23T14:41:55.828Z,20.25
2023-12-23T14:44:26.505Z,20.00
2023-12-23T14:46:57.284Z,19.95
2023-12-23T14:49:28.082Z,18.83
2023-12-23T14:51:58.632Z,18.77
2023-12-23T14:54:29.214Z,18.13
2023-12-23T14:56:59.516Z,18.30
2023-12-23T14:59:33.483Z,18.17
2023-12-23T15:02:05.503Z,18.15
2023-12-23T15:04:36.338Z,19.05
2023-12-23T15:07:06.988Z,18.73
2023-12-23T15:09:38.023Z,19.13
2023-12-23T15:12:08.907Z,18.90
2023-12-23T15:14:39.557Z,21.63
2023-12-23T15:17:10.666Z,19.80
2023-12-23T15:19:42.188Z,21.95
2023-12-23T15:24:43.451Z,22.50
2023-12-23T15:27:14.525Z,23.85
2023-12-23T15:29:45.324Z,22.90
2023-12-23T15:32:15.920Z,23.73
2023-12-23T15:34:46.891Z,21.50
2023-12-23T15:37:17.475Z,23.55
2023-12-23T15:39:48.119Z,23.83
2023-12-23T15:42:18.592Z,23.23
2023-12-23T15:44:48.993Z,21.48
2023-12-23T15:47:19.573Z,23.23
2023-12-23T15:49:50.133Z,23.00
2023-12-23T15:52:20.620Z,23.07
2023-12-23T15:54:53.080Z,23.30
2023-12-23T15:57:24.010Z,23.30
2023-12-23T15:59:54.611Z,22.58
2023-12-23T16:02:25.789Z,23.03
2023-12-23T16:04:56.404Z,21.88
2023-12-23T16:07:27.102Z,21.23
2023-12-23T16:09:57.609Z,23.40
2023-12-23T16:12:28.476Z,21.83
2023-12-23T16:15:00.108Z,21.90
2023-12-23T16:17:30.909Z,21.73
2023-12-23T16:20:03.362Z,21.87
2023-12-23T16:22:34.453Z,21.13
2023-12-23T16:25:05.082Z,22.00
2023-12-23T16:27:38.005Z,21.47
2023-12-23T16:30:09.223Z,21.17
2023-12-23T16:35:13.342Z,20.83
2023-12-23T16:37:45.196Z,20.67
2023-12-23T16:40:15.928Z,21.05
2023-12-23T16:42:46.485Z,21.50
2023-12-23T16:45:19.326Z,19.85
2023-12-23T16:47:50.118Z,20.00
2023-12-23T16:50:20.691Z,21.13
2023-12-23T16:52:51.571Z,19.97
2023-12-23T16:55:22.834Z,20.75
2023-12-23T16:57:53.837Z,21.02
2023-12-23T17:00:24.520Z,21.05
2023-12-23T17:02:55.372Z,19.98
2023-12-23T17:05:27.098Z,20.65
2023-12-23T17:07:57.650Z,20.35
2023-12-23T17:10:31.070Z,21.30
2023-12-23T17:13:01.650Z,20.27
2023-12-23T17:15:32.371Z,20.80
2023-12-23T17:18:03.737Z,21.00
2023-12-23T17:20:34.771Z,19.55
2023-12-23T17:23:05.525Z,20.10
2023-12-23T17:25:36.392Z,21.13
2023-12-23T17:28:11.410Z,19.70
2023-12-23T17:30:43.633Z,19.55
2023-12-23T17:33:15.940Z,19.43
2023-12-23T17:35:46.632Z,20.23
2023-12-23T17:38:17.151Z,19.80
2023-12-23T17:40:48.404Z,20.37
2023-12-23T17:43:19.743Z,19.63
2023-12-23T17:45:50.318Z,21.08
2023-12-23T17:48:21.327Z,19.60
2023-12-23T17:50:52.077Z,19.58
2023-12-23T17:53:24.553Z,19.70
2023-12-23T17:55:56.361Z,18.27
2023-12-23T17:58:27.198Z,19.80
2023-12-23T18:00:57.813Z,18.93
2023-12-23T18:03:28.356Z,19.63
2023-12-23T18:05:58.992Z,19.40
2023-12-23T18:08:29.721Z,20.05
2023-12-23T18:11:00.325Z,20.10
2023-12-23T18:13:31.054Z,19.80
2023-12-23T18:16:01.824Z,20.05
2023-12-23T18:18:32.646Z,19.40
2023-12-23T18:21:03.251Z,19.30
2023-12-23T18:23:34.097Z,19.23
2023-12-23T18:26:04.824Z,20.63
2023-12-23T18:28:36.075Z,19.58
2023-12-23T18:31:12.097Z,19.27
2023-12-23T18:34:15.474Z,18.85
2023-12-23T18:36:46.243Z,20.13
2023-12-23T18:39:17.014Z,19.95
2023-12-23T18:41:47.495Z,18.37
2023-12-23T18:44:18.197Z,19.30
2023-12-23T18:46:48.842Z,18.87
2023-12-23T18:49:19.755Z,18.35
2023-12-23T18:51:50.245Z,19.37
2023-12-23T18:54:20.806Z,18.95
2023-12-23T18:56:51.274Z,19.77
2023-12-23T18:59:22.106Z,20.95
2023-12-23T19:01:52.619Z,20.05
2023-12-23T19:04:23.511Z,20.10
2023-12-23T19:06:54.128Z,21.05
2023-12-23T19:09:24.839Z,20.27
2023-12-23T19:11:55.889Z,19.80
2023-12-23T19:14:26.474Z,20.33
2023-12-23T19:16:56.934Z,22.20
2023-12-23T19:19:27.606Z,22.47
2023-12-23T19:21:58.152Z,22.10
2023-12-23T19:24:28.627Z,20.60
2023-12-23T19:26:59.189Z,22.02
2023-12-23T19:29:29.842Z,22.77
2023-12-23T19:32:00.568Z,21.63
2023-12-23T19:34:31.231Z,21.57
2023-12-23T19:37:01.996Z,22.97
2023-12-23T19:39:32.555Z,20.53
2023-12-23T19:42:05.122Z,21.77
2023-12-23T19:44:35.766Z,21.67
2023-12-23T19:47:06.507Z,22.40
2023-12-23T19:49:37.104Z,22.23
2023-12-23T19:52:07.970Z,22.07
2023-12-23T19:54:38.502Z,22.70
2023-12-23T19:57:09.229Z,21.67
2023-12-23T19:59:40.940Z,21.33
2023-12-23T20:02:11.916Z,22.17
2023-12-23T20:04:42.448Z,22.60
2023-12-23T20:07:14.137Z,21.10
2023-12-23T20:09:44.692Z,21.73
2023-12-23T20:12:15.238Z,20.70
2023-12-23T20:14:45.717Z,21.80
2023-12-23T20:17:16.228Z,20.77
2023-12-23T20:19:46.773Z,20.92
2023-12-23T20:22:17.313Z,22.15
2023-12-23T20:24:47.825Z,22.40
2023-12-23T20:27:18.332Z,21.98
2023-12-23T20:29:48.896Z,21.95
2023-12-23T20:32:19.738Z,21.53
2023-12-23T20:34:50.321Z,21.50
2023-12-23T20:37:20.730Z,22.35
2023-12-23T20:39:51.189Z,21.83
2023-12-23T20:42:25.425Z,23.27
2023-12-23T20:44:56.181Z,23.02
2023-12-23T20:47:26.875Z,22.47
2023-12-23T20:49:58.350Z,22.05
2023-12-23T20:54:58.880Z,22.25
2023-12-23T20:57:29.314Z,21.70
2023-12-23T21:00:00.714Z,20.93
2023-12-23T21:05:01.749Z,19.75
2023-12-23T21:07:32.925Z,19.35
2023-12-23T21:10:03.471Z,20.35
2023-12-23T21:12:33.817Z,19.80
2023-12-23T21:15:04.719Z,19.30
2023-12-23T21:17:37.064Z,19.88
2023-12-23T21:20:09.301Z,18.38
2023-12-23T21:22:39.893Z,18.45
2023-12-23T21:25:10.862Z,17.87
2023-12-23T21:27:41.561Z,17.00
2023-12-23T21:30:12.716Z,18.13
2023-12-23T21:32:43.514Z,16.67
2023-12-23T21:35:14.547Z,17.93
2023-12-23T21:37:45.051Z,16.30
2023-12-23T21:40:16.017Z,16.30
2023-12-23T21:42:46.966Z,16.55
2023-12-23T21:45:17.601Z,16.88
2023-12-23T21:47:52.900Z,16.77
2023-12-23T21:50:24.711Z,15.60
2023-12-23T21:52:55.702Z,16.77
2023-12-23T21:55:26.611Z,16.73
2023-12-23T21:57:57.473Z,15.77
2023-12-23T22:00:27.998Z,15.17
2023-12-23T22:02:58.964Z,14.23
2023-12-23T22:05:30.871Z,13.75
2023-12-23T22:08:01.666Z,14.13
2023-12-23T22:10:32.224Z,13.52
2023-12-23T22:13:02.808Z,13.23
2023-12-23T22:15:33.392Z,13.87
2023-12-23T22:18:04.089Z,14.10
2023-12-23T22:20:35.092Z,13.43
2023-12-23T22:23:06.015Z,13.50
2023-12-23T22:25:36.624Z,12.75
2023-12-23T22:28:07.121Z,12.85
2023-12-23T22:30:37.887Z,13.23
2023-12-23T22:33:08.981Z,12.43
2023-12-23T22:35:39.656Z,12.98
2023-12-23T22:38:10.344Z,12.33
2023-12-23T22:40:40.903Z,12.60
2023-12-23T22:43:11.428Z,12.60
2023-12-23T22:45:41.952Z,12.20
2023-12-23T22:48:12.712Z,12.35
2023-12-23T22:50:43.465Z,12.13
2023-12-23T22:53:15.254Z,11.60
2023-12-23T22:55:45.764Z,11.82
2023-12-23T22:58:17.068Z,11.93
2023-12-23T23:00:47.672Z,11.35
2023-12-23T23:03:18.037Z,11.85
2023-12-23T23:05:48.786Z,11.23
2023-12-23T23:08:19.380Z,11.93
2023-12-23T23:10:50.044Z,11.90
2023-12-23T23:13:20.714Z,12.17
2023-12-23T23:15:51.294Z,12.20
2023-12-23T23:18:24.043Z,12.47
2023-12-23T23:20:55.315Z,12.63
2023-12-23T23:23:25.956Z,12.27
2023-12-23T23:25:56.689Z,12.30
2023-12-23T23:28:27.215Z,13.80
2023-12-23T23:30:58.390Z,13.63
2023-12-23T23:33:28.929Z,13.02
2023-12-23T23:35:59.472Z,13.38
2023-12-23T23:38:30.067Z,14.30
2023-12-23T23:41:01.101Z,13.57
2023-12-23T23:43:31.640Z,13.13
2023-12-23T23:46:02.331Z,12.82
2023-12-23T23:48:32.872Z,13.80
2023-12-23T23:51:03.616Z,13.38
2023-12-23T23:53:34.316Z,13.93
2023-12-23T23:56:06.447Z,13.20
2023-12-23T23:58:37.023Z,13.15
